createdAt,value
2023-03-31T09:10:39.012Z,4.92
2023-03-31T11:23:08.367Z,4.02
2023-03-31T11:25:34.899Z,3.53
2023-03-31T11:28:01.416Z,4.04
2023-03-31T11:30:27.874Z,4.15
2023-03-31T11:32:54.384Z,4.06
2023-03-31T11:35:20.864Z,4.02
2023-03-31T11:37:47.356Z,3.88
2023-03-31T11:40:13.807Z,3.87
2023-03-31T11:42:40.288Z,3.81
2023-03-31T11:45:06.781Z,3.63
2023-03-31T11:47:33.262Z,2.25
2023-03-31T11:49:59.786Z,3.09
2023-03-31T11:52:56.066Z,2.94
2023-03-31T11:55:22.478Z,2.92
2023-03-31T11:57:48.992Z,2.89
2023-03-31T12:00:15.505Z,2.47
2023-03-31T12:02:42.116Z,2.31
2023-03-31T12:05:08.644Z,2.37
2023-03-31T12:07:35.116Z,2.10
2023-03-31T12:10:01.552Z,1.81
2023-03-31T12:12:28.076Z,25.60
2023-03-31T12:14:54.568Z,346.82
2023-03-31T12:17:21.078Z,418.77
2023-03-31T12:19:47.631Z,97.98
2023-03-31T12:22:14.144Z,17.92
2023-03-31T12:24:40.651Z,345.91
2023-03-31T12:27:07.162Z,507.41
2023-03-31T12:29:33.741Z,400.65
2023-03-31T12:32:00.244Z,307.44
2023-03-31T12:34:26.752Z,221.15
2023-03-31T12:36:55.245Z,157.34
2023-03-31T12:39:22.003Z,111.80
2023-03-31T12:41:48.523Z,72.70
2023-03-31T12:44:14.986Z,43.28
2023-03-31T12:46:41.449Z,26.45
2023-03-31T12:49:07.994Z,17.61
2023-03-31T12:51:34.461Z,11.05
2023-03-31T12:54:01.059Z,3.54
2023-03-31T12:56:27.589Z,168.99
2023-03-31T12:58:54.162Z,333.94
2023-03-31T13:01:20.727Z,258.47
2023-03-31T13:03:47.377Z,190.80
2023-03-31T13:06:13.858Z,138.56
2023-03-31T13:08:40.343Z,101.78
2023-03-31T13:11:07.016Z,75.95
2023-03-31T13:13:33.818Z,48.14
2023-03-31T13:16:00.382Z,31.40
2023-03-31T13:18:26.850Z,19.84
2023-03-31T13:20:53.258Z,14.12
2023-03-31T13:23:19.882Z,8.71
2023-03-31T13:25:46.442Z,5.56
2023-03-31T13:28:12.956Z,3.02
2023-03-31T13:30:39.433Z,171.43
2023-03-31T13:33:06.017Z,285.06
2023-03-31T13:35:32.630Z,201.23
2023-03-31T13:37:59.066Z,139.09
2023-03-31T13:40:25.508Z,105.81
2023-03-31T13:42:51.985Z,78.69
2023-03-31T13:45:18.434Z,56.71
2023-03-31T13:47:44.951Z,41.73
2023-03-31T13:50:11.430Z,32.00
2023-03-31T13:52:37.916Z,22.54
2023-03-31T13:55:04.466Z,16.63
2023-03-31T13:57:31.127Z,12.46
2023-03-31T13:59:57.744Z,9.66
2023-03-31T14:02:24.318Z,7.31
2023-03-31T14:04:50.905Z,134.89
2023-03-31T14:07:18.199Z,178.94
2023-03-31T14:09:44.847Z,139.97
2023-03-31T14:12:11.376Z,103.45
2023-03-31T14:14:37.907Z,83.25
2023-03-31T14:17:04.392Z,65.45
2023-03-31T14:19:30.906Z,49.40
2023-03-31T14:21:57.430Z,37.09
2023-03-31T14:24:23.884Z,26.89
2023-03-31T14:26:50.417Z,19.64
2023-03-31T14:29:16.838Z,14.48
2023-03-31T14:31:43.334Z,11.25
2023-03-31T14:34:09.815Z,7.84
2023-03-31T14:36:36.387Z,4.57
